sensor_id;sensor_type;location;lat;lon;timestamp;P1;durP1;ratioP1;P2;durP2;ratioP2
69386;SDS011;56575;48.942;8.404;2022-10-16T00:01:06;4.67;;;1.20;;
69386;SDS011;56575;48.942;8.404;2022-10-16T00:03:34;4.20;;;0.90;;
69386;SDS011;56575;48.942;8.404;2022-10-16T00:06:00;4.35;;;0.90;;
69386;SDS011;56575;48.942;8.404;2022-10-16T00:08:26;1.87;;;0.90;;
69386;SDS011;56575;48.942;8.404;2022-10-16T00:10:52;3.38;;;1.10;;
69386;SDS011;56575;48.942;8.404;2022-10-16T00:13:17;3.43;;;1.00;;
69386;SDS011;56575;48.942;8.404;2022-10-16T00:15:44;4.45;;;1.02;;
69386;SDS011;56575;48.942;8.404;2022-10-16T00:18:11;2.92;;;0.95;;
69386;SDS011;56575;48.942;8.404;2022-10-16T00:20:36;3.00;;;1.23;;
69386;SDS011;56575;48.942;8.404;2022-10-16T00:23:03;2.33;;;1.00;;
69386;SDS011;56575;48.942;8.404;2022-10-16T00:25:30;1.63;;;1.13;;
69386;SDS011;56575;48.942;8.404;2022-10-16T00:27:57;3.15;;;1.10;;
69386;SDS011;56575;48.942;8.404;2022-10-16T00:30:23;2.33;;;0.90;;
69386;SDS011;56575;48.942;8.404;2022-10-16T00:32:49;3.70;;;1.20;;
69386;SDS011;56575;48.942;8.404;2022-10-16T00:35:14;2.70;;;1.13;;
69386;SDS011;56575;48.942;8.404;2022-10-16T00:37:39;2.57;;;1.00;;
69386;SDS011;56575;48.942;8.404;2022-10-16T00:40:05;2.75;;;1.60;;
69386;SDS011;56575;48.942;8.404;2022-10-16T00:42:31;2.10;;;1.07;;
69386;SDS011;56575;48.942;8.404;2022-10-16T00:44:56;3.88;;;1.10;;
69386;SDS011;56575;48.942;8.404;2022-10-16T00:47:25;5.33;;;1.50;;
69386;SDS011;56575;48.942;8.404;2022-10-16T00:52:54;5.93;;;1.35;;
69386;SDS011;56575;48.942;8.404;2022-10-16T00:55:20;1.73;;;1.05;;
69386;SDS011;56575;48.942;8.404;2022-10-16T00:57:46;3.93;;;1.10;;
69386;SDS011;56575;48.942;8.404;2022-10-16T01:00:16;4.32;;;1.10;;
69386;SDS011;56575;48.942;8.404;2022-10-16T01:02:43;3.88;;;1.08;;
69386;SDS011;56575;48.942;8.404;2022-10-16T01:05:09;6.30;;;1.17;;
69386;SDS011;56575;48.942;8.404;2022-10-16T01:12:51;5.47;;;1.08;;
69386;SDS011;56575;48.942;8.404;2022-10-16T01:15:35;3.35;;;0.90;;
69386;SDS011;56575;48.942;8.404;2022-10-16T01:20:59;2.75;;;0.88;;
69386;SDS011;56575;48.942;8.404;2022-10-16T01:23:43;4.63;;;1.00;;
69386;SDS011;56575;48.942;8.404;2022-10-16T01:29:09;3.45;;;0.98;;
69386;SDS011;56575;48.942;8.404;2022-10-16T01:31:44;4.07;;;0.85;;
69386;SDS011;56575;48.942;8.404;2022-10-16T01:34:20;4.93;;;1.50;;
69386;SDS011;56575;48.942;8.404;2022-10-16T01:36:53;3.93;;;1.00;;
69386;SDS011;56575;48.942;8.404;2022-10-16T01:39:22;3.10;;;1.20;;
69386;SDS011;56575;48.942;8.404;2022-10-16T01:42:13;2.97;;;1.00;;
69386;SDS011;56575;48.942;8.404;2022-10-16T01:44:43;3.60;;;1.13;;
69386;SDS011;56575;48.942;8.404;2022-10-16T01:47:12;3.53;;;1.02;;
69386;SDS011;56575;48.942;8.404;2022-10-16T01:49:38;5.37;;;1.10;;
69386;SDS011;56575;48.942;8.404;2022-10-16T01:52:06;2.85;;;1.20;;
69386;SDS011;56575;48.942;8.404;2022-10-16T01:54:36;3.25;;;0.90;;
69386;SDS011;56575;48.942;8.404;2022-10-16T01:57:03;4.05;;;1.00;;
69386;SDS011;56575;48.942;8.404;2022-10-16T01:59:31;6.25;;;1.30;;
69386;SDS011;56575;48.942;8.404;2022-10-16T02:02:01;4.17;;;1.30;;
69386;SDS011;56575;48.942;8.404;2022-10-16T02:04:32;4.10;;;1.40;;
69386;SDS011;56575;48.942;8.404;2022-10-16T02:07:01;4.32;;;1.23;;
69386;SDS011;56575;48.942;8.404;2022-10-16T02:09:26;6.83;;;1.23;;
69386;SDS011;56575;48.942;8.404;2022-10-16T02:11:52;3.35;;;1.33;;
69386;SDS011;56575;48.942;8.404;2022-10-16T02:14:21;3.38;;;0.90;;
69386;SDS011;56575;48.942;8.404;2022-10-16T02:16:49;2.10;;;0.83;;
69386;SDS011;56575;48.942;8.404;2022-10-16T02:19:15;2.13;;;0.95;;
69386;SDS011;56575;48.942;8.404;2022-10-16T02:21:49;2.05;;;0.95;;
69386;SDS011;56575;48.942;8.404;2022-10-16T02:24:26;4.25;;;1.10;;
69386;SDS011;56575;48.942;8.404;2022-10-16T02:27:01;3.58;;;1.30;;
69386;SDS011;56575;48.942;8.404;2022-10-16T02:29:33;2.60;;;1.20;;
69386;SDS011;56575;48.942;8.404;2022-10-16T02:32:04;3.80;;;1.65;;
69386;SDS011;56575;48.942;8.404;2022-10-16T02:34:32;4.25;;;1.10;;
69386;SDS011;56575;48.942;8.404;2022-10-16T02:36:59;4.68;;;1.00;;
69386;SDS011;56575;48.942;8.404;2022-10-16T02:39:27;1.73;;;1.10;;
69386;SDS011;56575;48.942;8.404;2022-10-16T02:41:53;2.50;;;1.30;;
69386;SDS011;56575;48.942;8.404;2022-10-16T02:44:19;6.80;;;1.20;;
69386;SDS011;56575;48.942;8.404;2022-10-16T02:46:44;2.83;;;1.30;;
69386;SDS011;56575;48.942;8.404;2022-10-16T02:49:09;4.77;;;1.20;;
69386;SDS011;56575;48.942;8.404;2022-10-16T02:51:35;3.93;;;1.30;;
69386;SDS011;56575;48.942;8.404;2022-10-16T02:54:01;3.17;;;1.67;;
69386;SDS011;56575;48.942;8.404;2022-10-16T02:56:26;2.58;;;0.82;;
69386;SDS011;56575;48.942;8.404;2022-10-16T02:58:52;4.60;;;1.03;;
69386;SDS011;56575;48.942;8.404;2022-10-16T03:01:17;5.43;;;1.10;;
69386;SDS011;56575;48.942;8.404;2022-10-16T03:03:42;4.67;;;1.10;;
69386;SDS011;56575;48.942;8.404;2022-10-16T03:06:08;4.20;;;1.10;;
69386;SDS011;56575;48.942;8.404;2022-10-16T03:08:34;2.85;;;0.80;;
69386;SDS011;56575;48.942;8.404;2022-10-16T03:10:59;2.40;;;1.00;;
69386;SDS011;56575;48.942;8.404;2022-10-16T03:13:24;2.77;;;0.70;;
69386;SDS011;56575;48.942;8.404;2022-10-16T03:15:50;3.40;;;0.80;;
69386;SDS011;56575;48.942;8.404;2022-10-16T03:18:15;4.40;;;1.10;;
69386;SDS011;56575;48.942;8.404;2022-10-16T03:20:42;3.47;;;0.80;;
69386;SDS011;56575;48.942;8.404;2022-10-16T03:23:08;2.65;;;1.00;;
69386;SDS011;56575;48.942;8.404;2022-10-16T03:25:33;3.70;;;0.90;;
69386;SDS011;56575;48.942;8.404;2022-10-16T03:27:59;4.17;;;0.93;;
69386;SDS011;56575;48.942;8.404;2022-10-16T03:30:24;3.47;;;1.20;;
69386;SDS011;56575;48.942;8.404;2022-10-16T03:32:49;5.13;;;1.43;;
69386;SDS011;56575;48.942;8.404;2022-10-16T03:35:19;3.70;;;1.30;;
69386;SDS011;56575;48.942;8.404;2022-10-16T03:37:44;6.03;;;1.60;;
69386;SDS011;56575;48.942;8.404;2022-10-16T03:40:10;6.60;;;1.20;;
69386;SDS011;56575;48.942;8.404;2022-10-16T03:42:35;3.83;;;1.90;;
69386;SDS011;56575;48.942;8.404;2022-10-16T03:45:01;5.00;;;2.00;;
69386;SDS011;56575;48.942;8.404;2022-10-16T03:47:26;3.03;;;1.60;;
69386;SDS011;56575;48.942;8.404;2022-10-16T03:49:52;4.22;;;1.70;;
69386;SDS011;56575;48.942;8.404;2022-10-16T03:52:17;4.43;;;1.30;;
69386;SDS011;56575;48.942;8.404;2022-10-16T03:54:42;5.63;;;1.37;;
69386;SDS011;56575;48.942;8.404;2022-10-16T03:57:08;4.57;;;1.07;;
69386;SDS011;56575;48.942;8.404;2022-10-16T03:59:33;4.90;;;0.98;;
69386;SDS011;56575;48.942;8.404;2022-10-16T04:01:59;4.17;;;1.07;;
69386;SDS011;56575;48.942;8.404;2022-10-16T04:04:24;2.20;;;0.80;;
69386;SDS011;56575;48.942;8.404;2022-10-16T04:06:50;3.27;;;1.07;;
69386;SDS011;56575;48.942;8.404;2022-10-16T04:09:15;1.50;;;0.98;;
69386;SDS011;56575;48.942;8.404;2022-10-16T04:11:41;4.10;;;0.83;;
69386;SDS011;56575;48.942;8.404;2022-10-16T04:14:06;2.75;;;1.00;;
69386;SDS011;56575;48.942;8.404;2022-10-16T04:16:31;2.30;;;1.00;;
69386;SDS011;56575;48.942;8.404;2022-10-16T04:18:57;4.80;;;1.10;;
69386;SDS011;56575;48.942;8.404;2022-10-16T04:21:22;2.97;;;0.97;;
69386;SDS011;56575;48.942;8.404;2022-10-16T04:23:48;2.27;;;1.37;;
69386;SDS011;56575;48.942;8.404;2022-10-16T04:26:14;1.88;;;0.82;;
69386;SDS011;56575;48.942;8.404;2022-10-16T04:28:39;2.07;;;0.90;;
69386;SDS011;56575;48.942;8.404;2022-10-16T04:31:05;2.15;;;0.95;;
69386;SDS011;56575;48.942;8.404;2022-10-16T04:33:31;2.83;;;0.97;;
69386;SDS011;56575;48.942;8.404;2022-10-16T04:36:00;1.75;;;1.00;;
69386;SDS011;56575;48.942;8.404;2022-10-16T04:38:26;6.78;;;1.10;;
69386;SDS011;56575;48.942;8.404;2022-10-16T04:40:52;3.70;;;1.40;;
69386;SDS011;56575;48.942;8.404;2022-10-16T04:43:18;4.00;;;1.17;;
69386;SDS011;56575;48.942;8.404;2022-10-16T04:45:44;3.27;;;1.17;;
69386;SDS011;56575;48.942;8.404;2022-10-16T04:48:09;3.15;;;1.00;;
69386;SDS011;56575;48.942;8.404;2022-10-16T04:50:35;4.33;;;1.17;;
69386;SDS011;56575;48.942;8.404;2022-10-16T04:53:00;5.03;;;1.20;;
69386;SDS011;56575;48.942;8.404;2022-10-16T04:55:25;4.53;;;1.10;;
69386;SDS011;56575;48.942;8.404;2022-10-16T04:57:51;5.10;;;1.20;;
69386;SDS011;56575;48.942;8.404;2022-10-16T05:00:16;2.93;;;1.00;;
69386;SDS011;56575;48.942;8.404;2022-10-16T05:02:42;4.93;;;1.07;;
69386;SDS011;56575;48.942;8.404;2022-10-16T05:05:07;4.50;;;1.30;;
69386;SDS011;56575;48.942;8.404;2022-10-16T05:07:33;2.53;;;1.70;;
69386;SDS011;56575;48.942;8.404;2022-10-16T05:09:58;4.93;;;1.50;;
69386;SDS011;56575;48.942;8.404;2022-10-16T05:12:23;4.33;;;1.57;;
69386;SDS011;56575;48.942;8.404;2022-10-16T05:14:49;4.93;;;1.77;;
69386;SDS011;56575;48.942;8.404;2022-10-16T05:17:14;5.50;;;1.45;;
69386;SDS011;56575;48.942;8.404;2022-10-16T05:19:39;2.70;;;1.00;;
69386;SDS011;56575;48.942;8.404;2022-10-16T05:22:05;5.83;;;1.50;;
69386;SDS011;56575;48.942;8.404;2022-10-16T05:24:30;3.07;;;1.40;;
69386;SDS011;56575;48.942;8.404;2022-10-16T05:26:55;3.07;;;1.03;;
69386;SDS011;56575;48.942;8.404;2022-10-16T05:29:21;3.28;;;0.90;;
69386;SDS011;56575;48.942;8.404;2022-10-16T05:31:49;1.17;;;1.00;;
69386;SDS011;56575;48.942;8.404;2022-10-16T05:34:15;5.38;;;1.23;;
69386;SDS011;56575;48.942;8.404;2022-10-16T05:36:40;6.23;;;1.30;;
69386;SDS011;56575;48.942;8.404;2022-10-16T05:39:06;2.43;;;1.30;;
69386;SDS011;56575;48.942;8.404;2022-10-16T05:41:31;4.10;;;1.15;;
69386;SDS011;56575;48.942;8.404;2022-10-16T05:43:56;4.07;;;1.10;;
69386;SDS011;56575;48.942;8.404;2022-10-16T05:46:22;3.43;;;1.00;;
69386;SDS011;56575;48.942;8.404;2022-10-16T05:48:47;3.73;;;1.00;;
69386;SDS011;56575;48.942;8.404;2022-10-16T05:51:13;10.97;;;1.17;;
69386;SDS011;56575;48.942;8.404;2022-10-16T05:53:40;3.20;;;0.88;;
69386;SDS011;56575;48.942;8.404;2022-10-16T05:56:06;2.55;;;1.08;;
69386;SDS011;56575;48.942;8.404;2022-10-16T05:58:34;5.53;;;1.27;;
69386;SDS011;56575;48.942;8.404;2022-10-16T06:01:03;6.78;;;1.67;;
69386;SDS011;56575;48.942;8.404;2022-10-16T06:03:34;5.97;;;3.90;;
69386;SDS011;56575;48.942;8.404;2022-10-16T06:05:59;5.13;;;3.33;;
69386;SDS011;56575;48.942;8.404;2022-10-16T06:08:43;6.40;;;4.20;;
69386;SDS011;56575;48.942;8.404;2022-10-16T06:11:11;5.15;;;2.28;;
69386;SDS011;56575;48.942;8.404;2022-10-16T06:13:38;4.75;;;1.80;;
69386;SDS011;56575;48.942;8.404;2022-10-16T06:16:07;3.58;;;1.50;;
69386;SDS011;56575;48.942;8.404;2022-10-16T06:18:33;3.03;;;2.00;;
69386;SDS011;56575;48.942;8.404;2022-10-16T06:20:58;3.53;;;1.33;;
69386;SDS011;56575;48.942;8.404;2022-10-16T06:23:24;2.57;;;1.30;;
69386;SDS011;56575;48.942;8.404;2022-10-16T06:25:50;3.92;;;1.20;;
69386;SDS011;56575;48.942;8.404;2022-10-16T06:28:15;5.43;;;1.77;;
69386;SDS011;56575;48.942;8.404;2022-10-16T06:30:41;4.50;;;1.80;;
69386;SDS011;56575;48.942;8.404;2022-10-16T06:33:08;5.30;;;1.70;;
69386;SDS011;56575;48.942;8.404;2022-10-16T06:35:34;2.57;;;1.50;;
69386;SDS011;56575;48.942;8.404;2022-10-16T06:38:00;4.35;;;1.83;;
69386;SDS011;56575;48.942;8.404;2022-10-16T06:40:26;4.50;;;1.90;;
69386;SDS011;56575;48.942;8.404;2022-10-16T06:42:51;2.57;;;1.40;;
69386;SDS011;56575;48.942;8.404;2022-10-16T06:45:20;4.88;;;1.25;;
69386;SDS011;56575;48.942;8.404;2022-10-16T06:47:45;5.57;;;1.27;;
69386;SDS011;56575;48.942;8.404;2022-10-16T06:50:10;3.00;;;1.45;;
69386;SDS011;56575;48.942;8.404;2022-10-16T06:52:36;5.23;;;1.90;;
69386;SDS011;56575;48.942;8.404;2022-10-16T06:55:01;5.00;;;2.00;;
69386;SDS011;56575;48.942;8.404;2022-10-16T06:57:28;4.13;;;1.98;;
69386;SDS011;56575;48.942;8.404;2022-10-16T06:59:53;2.53;;;1.80;;
69386;SDS011;56575;48.942;8.404;2022-10-16T07:02:19;4.18;;;1.58;;
69386;SDS011;56575;48.942;8.404;2022-10-16T07:04:44;5.50;;;1.80;;
69386;SDS011;56575;48.942;8.404;2022-10-16T07:07:09;4.60;;;1.30;;
69386;SDS011;56575;48.942;8.404;2022-10-16T07:09:35;2.00;;;1.20;;
69386;SDS011;56575;48.942;8.404;2022-10-16T07:12:00;2.35;;;1.15;;
69386;SDS011;56575;48.942;8.404;2022-10-16T07:14:26;3.30;;;1.33;;
69386;SDS011;56575;48.942;8.404;2022-10-16T07:16:51;2.43;;;1.03;;
69386;SDS011;56575;48.942;8.404;2022-10-16T07:19:17;3.27;;;1.40;;
69386;SDS011;56575;48.942;8.404;2022-10-16T07:21:43;1.60;;;0.90;;
69386;SDS011;56575;48.942;8.404;2022-10-16T07:24:13;6.68;;;1.05;;
69386;SDS011;56575;48.942;8.404;2022-10-16T07:26:40;3.28;;;1.15;;
69386;SDS011;56575;48.942;8.404;2022-10-16T07:29:07;4.18;;;2.70;;
69386;SDS011;56575;48.942;8.404;2022-10-16T07:31:38;4.35;;;2.72;;
69386;SDS011;56575;48.942;8.404;2022-10-16T07:34:04;4.27;;;2.40;;
69386;SDS011;56575;48.942;8.404;2022-10-16T07:36:29;5.18;;;2.00;;
69386;SDS011;56575;48.942;8.404;2022-10-16T07:38:54;6.80;;;1.90;;
69386;SDS011;56575;48.942;8.404;2022-10-16T07:41:20;4.43;;;2.60;;
69386;SDS011;56575;48.942;8.404;2022-10-16T07:43:46;3.43;;;1.50;;
69386;SDS011;56575;48.942;8.404;2022-10-16T07:46:12;2.80;;;1.40;;
69386;SDS011;56575;48.942;8.404;2022-10-16T07:48:38;4.35;;;1.35;;
69386;SDS011;56575;48.942;8.404;2022-10-16T07:51:04;5.13;;;1.60;;
69386;SDS011;56575;48.942;8.404;2022-10-16T07:53:31;3.67;;;1.40;;
69386;SDS011;56575;48.942;8.404;2022-10-16T07:56:00;3.05;;;1.50;;
69386;SDS011;56575;48.942;8.404;2022-10-16T07:58:27;4.90;;;1.27;;
69386;SDS011;56575;48.942;8.404;2022-10-16T08:00:53;3.15;;;1.20;;
69386;SDS011;56575;48.942;8.404;2022-10-16T08:03:19;3.38;;;1.20;;
69386;SDS011;56575;48.942;8.404;2022-10-16T08:05:45;3.97;;;1.07;;
69386;SDS011;56575;48.942;8.404;2022-10-16T08:08:13;2.60;;;1.30;;
69386;SDS011;56575;48.942;8.404;2022-10-16T08:10:40;6.80;;;1.50;;
69386;SDS011;56575;48.942;8.404;2022-10-16T08:13:05;3.63;;;1.40;;
69386;SDS011;56575;48.942;8.404;2022-10-16T08:15:30;3.40;;;1.40;;
69386;SDS011;56575;48.942;8.404;2022-10-16T08:20:25;6.45;;;1.40;;
69386;SDS011;56575;48.942;8.404;2022-10-16T08:22:52;6.00;;;1.42;;
69386;SDS011;56575;48.942;8.404;2022-10-16T08:25:17;4.13;;;1.50;;
69386;SDS011;56575;48.942;8.404;2022-10-16T08:27:43;5.13;;;1.70;;
69386;SDS011;56575;48.942;8.404;2022-10-16T08:30:09;5.25;;;1.55;;
69386;SDS011;56575;48.942;8.404;2022-10-16T08:32:35;3.90;;;1.30;;
69386;SDS011;56575;48.942;8.404;2022-10-16T08:35:01;3.53;;;1.50;;
69386;SDS011;56575;48.942;8.404;2022-10-16T08:37:30;3.25;;;1.40;;
69386;SDS011;56575;48.942;8.404;2022-10-16T08:39:56;5.32;;;1.40;;
69386;SDS011;56575;48.942;8.404;2022-10-16T08:50:24;3.03;;;1.55;;
69386;SDS011;56575;48.942;8.404;2022-10-16T08:52:53;2.17;;;1.55;;
69386;SDS011;56575;48.942;8.404;2022-10-16T08:55:33;2.65;;;1.08;;
69386;SDS011;56575;48.942;8.404;2022-10-16T08:58:15;10.20;;;1.40;;
69386;SDS011;56575;48.942;8.404;2022-10-16T09:00:43;4.50;;;1.57;;
69386;SDS011;56575;48.942;8.404;2022-10-16T09:03:17;2.53;;;1.00;;
69386;SDS011;56575;48.942;8.404;2022-10-16T09:11:45;2.15;;;1.30;;
69386;SDS011;56575;48.942;8.404;2022-10-16T09:23:00;4.68;;;1.20;;
69386;SDS011;56575;48.942;8.404;2022-10-16T09:25:37;2.97;;;1.30;;
69386;SDS011;56575;48.942;8.404;2022-10-16T09:28:07;2.10;;;1.10;;
69386;SDS011;56575;48.942;8.404;2022-10-16T09:30:34;3.15;;;1.15;;
69386;SDS011;56575;48.942;8.404;2022-10-16T09:32:59;2.97;;;1.10;;
69386;SDS011;56575;48.942;8.404;2022-10-16T09:37:58;3.22;;;1.10;;
69386;SDS011;56575;48.942;8.404;2022-10-16T09:40:25;3.45;;;1.13;;
69386;SDS011;56575;48.942;8.404;2022-10-16T09:42:52;3.45;;;1.30;;
69386;SDS011;56575;48.942;8.404;2022-10-16T09:45:26;3.10;;;1.30;;
69386;SDS011;56575;48.942;8.404;2022-10-16T09:47:52;2.37;;;1.00;;
69386;SDS011;56575;48.942;8.404;2022-10-16T09:50:25;4.35;;;1.20;;
69386;SDS011;56575;48.942;8.404;2022-10-16T09:55:54;1.90;;;1.20;;
69386;SDS011;56575;48.942;8.404;2022-10-16T09:58:22;3.22;;;1.20;;
69386;SDS011;56575;48.942;8.404;2022-10-16T10:00:49;4.38;;;1.20;;
69386;SDS011;56575;48.942;8.404;2022-10-16T10:06:17;3.47;;;1.25;;
69386;SDS011;56575;48.942;8.404;2022-10-16T10:08:56;3.43;;;1.27;;
69386;SDS011;56575;48.942;8.404;2022-10-16T10:16:48;2.75;;;1.40;;
69386;SDS011;56575;48.942;8.404;2022-10-16T10:19:21;3.53;;;1.40;;
69386;SDS011;56575;48.942;8.404;2022-10-16T10:21:47;4.63;;;1.50;;
69386;SDS011;56575;48.942;8.404;2022-10-16T10:24:14;4.50;;;1.40;;
69386;SDS011;56575;48.942;8.404;2022-10-16T10:26:43;4.07;;;1.20;;
69386;SDS011;56575;48.942;8.404;2022-10-16T10:29:16;5.20;;;1.50;;
69386;SDS011;56575;48.942;8.404;2022-10-16T10:31:58;5.35;;;1.50;;
69386;SDS011;56575;48.942;8.404;2022-10-16T10:34:44;4.90;;;1.50;;
69386;SDS011;56575;48.942;8.404;2022-10-16T10:46:10;3.58;;;1.33;;
69386;SDS011;56575;48.942;8.404;2022-10-16T10:51:13;1.80;;;1.13;;
69386;SDS011;56575;48.942;8.404;2022-10-16T10:57:30;2.67;;;1.40;;
69386;SDS011;56575;48.942;8.404;2022-10-16T11:06:03;2.92;;;1.20;;
69386;SDS011;56575;48.942;8.404;2022-10-16T11:13:34;2.15;;;1.40;;
69386;SDS011;56575;48.942;8.404;2022-10-16T11:16:14;4.13;;;1.42;;
69386;SDS011;56575;48.942;8.404;2022-10-16T11:21:45;4.68;;;1.48;;
69386;SDS011;56575;48.942;8.404;2022-10-16T11:24:29;3.97;;;1.50;;
69386;SDS011;56575;48.942;8.404;2022-10-16T11:27:03;2.13;;;1.40;;
69386;SDS011;56575;48.942;8.404;2022-10-16T11:29:34;4.63;;;1.33;;
69386;SDS011;56575;48.942;8.404;2022-10-16T11:32:06;4.45;;;1.75;;
69386;SDS011;56575;48.942;8.404;2022-10-16T11:34:48;5.93;;;1.40;;
69386;SDS011;56575;48.942;8.404;2022-10-16T11:37:21;3.30;;;1.33;;
69386;SDS011;56575;48.942;8.404;2022-10-16T11:39:52;3.53;;;1.40;;
69386;SDS011;56575;48.942;8.404;2022-10-16T11:42:27;3.20;;;1.15;;
69386;SDS011;56575;48.942;8.404;2022-10-16T11:48:11;6.78;;;1.60;;
69386;SDS011;56575;48.942;8.404;2022-10-16T11:50:53;5.17;;;1.30;;
69386;SDS011;56575;48.942;8.404;2022-10-16T11:53:27;4.20;;;1.45;;
69386;SDS011;56575;48.942;8.404;2022-10-16T11:56:16;2.30;;;1.23;;
69386;SDS011;56575;48.942;8.404;2022-10-16T12:04:25;4.37;;;1.60;;
69386;SDS011;56575;48.942;8.404;2022-10-16T12:07:11;7.25;;;1.35;;
69386;SDS011;56575;48.942;8.404;2022-10-16T12:09:42;2.15;;;1.30;;
69386;SDS011;56575;48.942;8.404;2022-10-16T12:15:26;4.10;;;1.40;;
69386;SDS011;56575;48.942;8.404;2022-10-16T12:17:54;2.95;;;1.27;;
69386;SDS011;56575;48.942;8.404;2022-10-16T12:20:31;3.78;;;1.45;;
69386;SDS011;56575;48.942;8.404;2022-10-16T12:23:02;2.47;;;1.20;;
69386;SDS011;56575;48.942;8.404;2022-10-16T12:25:31;3.50;;;1.60;;
69386;SDS011;56575;48.942;8.404;2022-10-16T12:28:00;2.70;;;1.40;;
69386;SDS011;56575;48.942;8.404;2022-10-16T12:30:32;4.72;;;1.60;;
69386;SDS011;56575;48.942;8.404;2022-10-16T12:33:03;3.72;;;1.65;;
69386;SDS011;56575;48.942;8.404;2022-10-16T12:35:32;2.30;;;1.40;;
69386;SDS011;56575;48.942;8.404;2022-10-16T12:38:07;2.90;;;1.50;;
69386;SDS011;56575;48.942;8.404;2022-10-16T12:40:40;2.70;;;1.33;;
69386;SDS011;56575;48.942;8.404;2022-10-16T12:43:12;4.07;;;1.50;;
69386;SDS011;56575;48.942;8.404;2022-10-16T12:48:43;6.22;;;1.52;;
69386;SDS011;56575;48.942;8.404;2022-10-16T12:53:45;2.40;;;1.25;;
69386;SDS011;56575;48.942;8.404;2022-10-16T12:56:18;2.60;;;1.30;;
69386;SDS011;56575;48.942;8.404;2022-10-16T13:01:34;4.25;;;1.40;;
69386;SDS011;56575;48.942;8.404;2022-10-16T13:12:59;2.92;;;1.10;;
69386;SDS011;56575;48.942;8.404;2022-10-16T13:29:09;3.90;;;1.63;;
69386;SDS011;56575;48.942;8.404;2022-10-16T13:31:36;2.60;;;1.50;;
69386;SDS011;56575;48.942;8.404;2022-10-16T13:34:03;4.10;;;1.30;;
69386;SDS011;56575;48.942;8.404;2022-10-16T13:36:35;2.78;;;1.50;;
69386;SDS011;56575;48.942;8.404;2022-10-16T13:39:15;3.17;;;1.40;;
69386;SDS011;56575;48.942;8.404;2022-10-16T13:41:58;5.82;;;1.60;;
69386;SDS011;56575;48.942;8.404;2022-10-16T13:44:44;3.83;;;1.40;;
69386;SDS011;56575;48.942;8.404;2022-10-16T13:47:23;1.98;;;1.25;;
69386;SDS011;56575;48.942;8.404;2022-10-16T13:50:09;2.75;;;1.50;;
69386;SDS011;56575;48.942;8.404;2022-10-16T13:52:38;2.08;;;1.30;;
69386;SDS011;56575;48.942;8.404;2022-10-16T13:55:13;4.20;;;1.40;;
69386;SDS011;56575;48.942;8.404;2022-10-16T13:57:39;2.60;;;1.45;;
69386;SDS011;56575;48.942;8.404;2022-10-16T14:00:17;2.00;;;1.38;;
69386;SDS011;56575;48.942;8.404;2022-10-16T14:02:50;4.00;;;1.60;;
69386;SDS011;56575;48.942;8.404;2022-10-16T14:05:20;3.25;;;1.52;;
69386;SDS011;56575;48.942;8.404;2022-10-16T14:07:47;2.93;;;1.40;;
69386;SDS011;56575;48.942;8.404;2022-10-16T14:10:49;3.65;;;1.77;;
69386;SDS011;56575;48.942;8.404;2022-10-16T14:13:07;3.88;;;1.80;;
69386;SDS011;56575;48.942;8.404;2022-10-16T14:15:38;6.93;;;1.83;;
69386;SDS011;56575;48.942;8.404;2022-10-16T14:18:04;6.07;;;2.35;;
69386;SDS011;56575;48.942;8.404;2022-10-16T14:20:30;9.00;;;2.90;;
69386;SDS011;56575;48.942;8.404;2022-10-16T14:23:02;7.45;;;2.72;;
69386;SDS011;56575;48.942;8.404;2022-10-16T14:25:30;4.72;;;1.58;;
69386;SDS011;56575;48.942;8.404;2022-10-16T14:30:48;4.20;;;2.15;;
69386;SDS011;56575;48.942;8.404;2022-10-16T14:33:23;5.33;;;2.33;;
69386;SDS011;56575;48.942;8.404;2022-10-16T14:36:13;4.43;;;2.03;;
69386;SDS011;56575;48.942;8.404;2022-10-16T14:38:42;9.45;;;2.33;;
69386;SDS011;56575;48.942;8.404;2022-10-16T14:41:12;4.57;;;2.20;;
69386;SDS011;56575;48.942;8.404;2022-10-16T14:43:41;8.20;;;2.10;;
69386;SDS011;56575;48.942;8.404;2022-10-16T14:46:18;5.22;;;2.47;;
69386;SDS011;56575;48.942;8.404;2022-10-16T14:48:46;7.10;;;2.40;;
69386;SDS011;56575;48.942;8.404;2022-10-16T14:51:14;7.17;;;2.53;;
69386;SDS011;56575;48.942;8.404;2022-10-16T14:53:43;3.83;;;2.25;;
69386;SDS011;56575;48.942;8.404;2022-10-16T14:56:14;8.73;;;2.27;;
69386;SDS011;56575;48.942;8.404;2022-10-16T14:58:43;4.75;;;1.80;;
69386;SDS011;56575;48.942;8.404;2022-10-16T15:01:09;6.80;;;2.10;;
69386;SDS011;56575;48.942;8.404;2022-10-16T15:03:36;3.58;;;1.80;;
69386;SDS011;56575;48.942;8.404;2022-10-16T15:06:02;5.18;;;1.95;;
69386;SDS011;56575;48.942;8.404;2022-10-16T15:08:27;6.20;;;2.00;;
69386;SDS011;56575;48.942;8.404;2022-10-16T15:10:53;5.37;;;1.87;;
69386;SDS011;56575;48.942;8.404;2022-10-16T15:13:19;9.67;;;2.03;;
69386;SDS011;56575;48.942;8.404;2022-10-16T15:15:45;7.45;;;4.05;;
69386;SDS011;56575;48.942;8.404;2022-10-16T15:18:12;30.65;;;18.90;;
69386;SDS011;56575;48.942;8.404;2022-10-16T15:20:40;52.80;;;29.42;;
69386;SDS011;56575;48.942;8.404;2022-10-16T15:23:09;146.63;;;97.22;;
69386;SDS011;56575;48.942;8.404;2022-10-16T15:25:44;113.73;;;70.43;;
69386;SDS011;56575;48.942;8.404;2022-10-16T15:28:12;125.18;;;67.90;;
69386;SDS011;56575;48.942;8.404;2022-10-16T15:30:39;80.38;;;44.88;;
69386;SDS011;56575;48.942;8.404;2022-10-16T15:33:10;75.22;;;44.97;;
69386;SDS011;56575;48.942;8.404;2022-10-16T15:35:38;55.70;;;30.10;;
69386;SDS011;56575;48.942;8.404;2022-10-16T15:38:03;56.17;;;34.57;;
69386;SDS011;56575;48.942;8.404;2022-10-16T15:40:29;51.07;;;26.87;;
69386;SDS011;56575;48.942;8.404;2022-10-16T15:42:54;52.87;;;33.00;;
69386;SDS011;56575;48.942;8.404;2022-10-16T15:45:19;44.67;;;23.27;;
69386;SDS011;56575;48.942;8.404;2022-10-16T15:47:45;34.87;;;20.80;;
69386;SDS011;56575;48.942;8.404;2022-10-16T15:50:11;20.02;;;11.68;;
69386;SDS011;56575;48.942;8.404;2022-10-16T15:52:38;12.80;;;7.10;;
69386;SDS011;56575;48.942;8.404;2022-10-16T15:55:14;11.80;;;4.72;;
69386;SDS011;56575;48.942;8.404;2022-10-16T15:57:39;8.93;;;4.30;;
69386;SDS011;56575;48.942;8.404;2022-10-16T16:00:08;8.57;;;3.90;;
69386;SDS011;56575;48.942;8.404;2022-10-16T16:02:35;8.98;;;4.13;;
69386;SDS011;56575;48.942;8.404;2022-10-16T16:05:01;7.93;;;3.70;;
69386;SDS011;56575;48.942;8.404;2022-10-16T16:07:26;8.30;;;4.80;;
69386;SDS011;56575;48.942;8.404;2022-10-16T16:09:52;8.85;;;4.88;;
69386;SDS011;56575;48.942;8.404;2022-10-16T16:12:18;7.30;;;4.20;;
69386;SDS011;56575;48.942;8.404;2022-10-16T16:14:43;10.90;;;4.78;;
69386;SDS011;56575;48.942;8.404;2022-10-16T16:17:11;8.88;;;3.55;;
69386;SDS011;56575;48.942;8.404;2022-10-16T16:19:36;8.70;;;3.57;;
69386;SDS011;56575;48.942;8.404;2022-10-16T16:22:02;6.43;;;3.70;;
69386;SDS011;56575;48.942;8.404;2022-10-16T16:24:27;8.70;;;3.72;;
69386;SDS011;56575;48.942;8.404;2022-10-16T16:26:53;6.63;;;3.70;;
69386;SDS011;56575;48.942;8.404;2022-10-16T16:29:18;12.60;;;3.50;;
69386;SDS011;56575;48.942;8.404;2022-10-16T16:31:43;10.03;;;4.13;;
69386;SDS011;56575;48.942;8.404;2022-10-16T16:34:10;12.02;;;3.90;;
69386;SDS011;56575;48.942;8.404;2022-10-16T16:36:36;7.77;;;3.77;;
69386;SDS011;56575;48.942;8.404;2022-10-16T16:39:02;8.40;;;3.80;;
69386;SDS011;56575;48.942;8.404;2022-10-16T16:41:28;8.53;;;3.50;;
69386;SDS011;56575;48.942;8.404;2022-10-16T16:43:55;10.82;;;3.42;;
69386;SDS011;56575;48.942;8.404;2022-10-16T16:46:25;13.68;;;3.80;;
69386;SDS011;56575;48.942;8.404;2022-10-16T16:48:51;5.97;;;2.80;;
69386;SDS011;56575;48.942;8.404;2022-10-16T16:51:18;7.73;;;3.33;;
69386;SDS011;56575;48.942;8.404;2022-10-16T16:53:45;8.07;;;3.13;;
69386;SDS011;56575;48.942;8.404;2022-10-16T16:56:13;7.18;;;2.88;;
69386;SDS011;56575;48.942;8.404;2022-10-16T16:58:38;6.28;;;3.13;;
69386;SDS011;56575;48.942;8.404;2022-10-16T17:01:04;7.83;;;2.90;;